NKS4269 KFLL-KATL
Flight info
| Callsign | NKS4269 |
|---|---|
| Flight time | 1h 21m |
| Altitude | 38000 |
| Route | FRSBE2 STYMY Q77 MJAMS/N0439F370 Q77 SHRKS/N0445F380 LAIRI LARZZ JJEDI4 |
| Aircraft | A320/M-SDE3FGHIRWY/LB1 |
Departure
| Time | 2026-05-03 21:34 |
|---|---|
| Airport | Fort Lauderdale Hollywood International Airport (KFLL) |
Arrival
| Time | 2026-05-03 22:55 |
|---|---|
| Airport | Hartsfield Jackson Atlanta International Airport (KATL) |
| Time | Latitude | Longitude | Altitude | Speed | Heading |
|---|---|---|---|---|---|
| 2026-05-03 20:37 | 26.06888 | -80.14474 | 18 ft | 0 kts | 2° |
| 2026-05-03 20:53 | 26.06886 | -80.14474 | 17 ft | 1 kts | 2° |
| 2026-05-03 20:54 | 26.06869 | -80.14476 | 19 ft | 3 kts | 7° |
| 2026-05-03 20:54 | 26.06830 | -80.14482 | 18 ft | 3 kts | 357° |
| 2026-05-03 20:54 | 26.06818 | -80.14483 | 19 ft | 3 kts | 290° |
| 2026-05-03 20:55 | 26.06816 | -80.14490 | 18 ft | 0 kts | 256° |
| 2026-05-03 20:56 | 26.06814 | -80.14497 | 17 ft | 0 kts | 256° |
| 2026-05-03 21:02 | 26.06806 | -80.14516 | 16 ft | 11 kts | 238° |
| 2026-05-03 21:03 | 26.06767 | -80.14606 | 16 ft | 14 kts | 263° |
| 2026-05-03 21:03 | 26.06766 | -80.14721 | 18 ft | 16 kts | 270° |
| 2026-05-03 21:03 | 26.06767 | -80.14852 | 22 ft | 17 kts | 270° |
| 2026-05-03 21:03 | 26.06768 | -80.14990 | 22 ft | 19 kts | 271° |
| 2026-05-03 21:04 | 26.06770 | -80.15114 | 23 ft | 6 kts | 281° |
| 2026-05-03 21:04 | 26.06816 | -80.15136 | 23 ft | 9 kts | 357° |
| 2026-05-03 21:04 | 26.06890 | -80.15134 | 24 ft | 12 kts | 1° |
| 2026-05-03 21:04 | 26.06977 | -80.15136 | 24 ft | 14 kts | 359° |
| 2026-05-03 21:05 | 26.07079 | -80.15135 | 23 ft | 16 kts | 0° |
| 2026-05-03 21:05 | 26.07208 | -80.15133 | 21 ft | 20 kts | 3° |
| 2026-05-03 21:05 | 26.07348 | -80.15126 | 20 ft | 18 kts | 1° |
| 2026-05-03 21:05 | 26.07478 | -80.15125 | 19 ft | 19 kts | 359° |
| 2026-05-03 21:06 | 26.07562 | -80.15179 | 17 ft | 17 kts | 282° |
| 2026-05-03 21:06 | 26.07564 | -80.15271 | 17 ft | 0 kts | 269° |
| 2026-05-03 21:06 | 26.07564 | -80.15293 | 18 ft | 9 kts | 269° |
| 2026-05-03 21:06 | 26.07563 | -80.15372 | 17 ft | 12 kts | 269° |
| 2026-05-03 21:07 | 26.07525 | -80.15455 | 17 ft | 15 kts | 221° |
| 2026-05-03 21:07 | 26.07491 | -80.15536 | 19 ft | 11 kts | 263° |
| 2026-05-03 21:07 | 26.07492 | -80.15632 | 19 ft | 15 kts | 271° |
| 2026-05-03 21:07 | 26.07493 | -80.15760 | 19 ft | 18 kts | 270° |
| 2026-05-03 21:08 | 26.07494 | -80.15874 | 21 ft | 12 kts | 269° |
| 2026-05-03 21:08 | 26.07493 | -80.15967 | 23 ft | 12 kts | 270° |
| 2026-05-03 21:08 | 26.07493 | -80.16059 | 25 ft | 12 kts | 270° |
| 2026-05-03 21:08 | 26.07494 | -80.16162 | 25 ft | 14 kts | 271° |
| 2026-05-03 21:09 | 26.07494 | -80.16240 | 25 ft | 9 kts | 270° |
| 2026-05-03 21:09 | 26.07497 | -80.16359 | 24 ft | 16 kts | 270° |
| 2026-05-03 21:09 | 26.07497 | -80.16445 | 24 ft | 6 kts | 270° |
| 2026-05-03 21:09 | 26.07497 | -80.16455 | 24 ft | 0 kts | 270° |
| 2026-05-03 21:12 | 26.07497 | -80.16456 | 24 ft | 0 kts | 270° |
| 2026-05-03 21:12 | 26.07497 | -80.16468 | 24 ft | 3 kts | 271° |
| 2026-05-03 21:13 | 26.07497 | -80.16489 | 25 ft | 3 kts | 270° |
| 2026-05-03 21:13 | 26.07498 | -80.16533 | 25 ft | 5 kts | 271° |
| 2026-05-03 21:13 | 26.07498 | -80.16537 | 25 ft | 0 kts | 271° |
| 2026-05-03 21:14 | 26.07498 | -80.16538 | 25 ft | 1 kts | 271° |
| 2026-05-03 21:14 | 26.07498 | -80.16563 | 24 ft | 3 kts | 271° |
| 2026-05-03 21:14 | 26.07498 | -80.16569 | 24 ft | 2 kts | 271° |
| 2026-05-03 21:15 | 26.07498 | -80.16578 | 24 ft | 0 kts | 271° |
| 2026-05-03 21:16 | 26.07498 | -80.16582 | 24 ft | 2 kts | 270° |
| 2026-05-03 21:16 | 26.07500 | -80.16604 | 24 ft | 4 kts | 281° |
| 2026-05-03 21:16 | 26.07503 | -80.16615 | 24 ft | 3 kts | 286° |
| 2026-05-03 21:16 | 26.07506 | -80.16621 | 26 ft | 0 kts | 300° |
| 2026-05-03 21:19 | 26.07507 | -80.16621 | 26 ft | 0 kts | 300° |
| 2026-05-03 21:23 | 26.07507 | -80.16622 | 26 ft | 1 kts | 300° |
| 2026-05-03 21:23 | 26.07509 | -80.16626 | 25 ft | 3 kts | 303° |
| 2026-05-03 21:23 | 26.07533 | -80.16642 | 24 ft | 2 kts | 340° |
| 2026-05-03 21:23 | 26.07546 | -80.16643 | 23 ft | 0 kts | 358° |
| 2026-05-03 21:29 | 26.07550 | -80.16643 | 23 ft | 3 kts | 358° |
| 2026-05-03 21:30 | 26.07587 | -80.16644 | 23 ft | 0 kts | 359° |
| 2026-05-03 21:31 | 26.07593 | -80.16644 | 22 ft | 5 kts | 360° |
| 2026-05-03 21:31 | 26.07665 | -80.16641 | 22 ft | 8 kts | 10° |
| 2026-05-03 21:31 | 26.07694 | -80.16589 | 24 ft | 5 kts | 93° |
| 2026-05-03 21:32 | 26.07694 | -80.16585 | 23 ft | 0 kts | 90° |
| 2026-05-03 21:33 | 26.07694 | -80.16435 | 26 ft | 51 kts | 90° |
| 2026-05-03 21:33 | 26.07692 | -80.15780 | 22 ft | 115 kts | 90° |
| 2026-05-03 21:33 | 26.07689 | -80.14705 | 41 ft | 160 kts | 86° |
| 2026-05-03 21:34 | 26.07675 | -80.13429 | 536 ft | 167 kts | 86° |
| 2026-05-03 21:34 | 26.07706 | -80.12148 | 1215 ft | 165 kts | 85° |
| 2026-05-03 21:34 | 26.07751 | -80.10870 | 1858 ft | 168 kts | 86° |
| 2026-05-03 21:34 | 26.07937 | -80.09520 | 2195 ft | 187 kts | 68° |
| 2026-05-03 21:35 | 26.08514 | -80.08134 | 2436 ft | 208 kts | 56° |
| 2026-05-03 21:35 | 26.09591 | -80.06958 | 2698 ft | 229 kts | 27° |
| 2026-05-03 21:35 | 26.11141 | -80.06265 | 3089 ft | 252 kts | 17° |
| 2026-05-03 21:35 | 26.12832 | -80.05600 | 3698 ft | 269 kts | 17° |
| 2026-05-03 21:36 | 26.14635 | -80.04956 | 3938 ft | 271 kts | 8° |
| 2026-05-03 21:36 | 26.16496 | -80.05000 | 4002 ft | 267 kts | 343° |
| 2026-05-03 21:36 | 26.18259 | -80.05651 | 4008 ft | 267 kts | 338° |
| 2026-05-03 21:36 | 26.19984 | -80.06336 | 4008 ft | 265 kts | 334° |
| 2026-05-03 21:37 | 26.21560 | -80.07383 | 4007 ft | 263 kts | 318° |
| 2026-05-03 21:37 | 26.22787 | -80.08872 | 4012 ft | 260 kts | 302° |
| 2026-05-03 21:37 | 26.23593 | -80.10666 | 4010 ft | 260 kts | 290° |
| 2026-05-03 21:37 | 26.24253 | -80.12547 | 4009 ft | 260 kts | 290° |
| 2026-05-03 21:38 | 26.24921 | -80.14425 | 4008 ft | 260 kts | 291° |
| 2026-05-03 21:38 | 26.25664 | -80.16262 | 4008 ft | 261 kts | 300° |
| 2026-05-03 21:38 | 26.26645 | -80.17975 | 4386 ft | 269 kts | 302° |
| 2026-05-03 21:38 | 26.27651 | -80.19731 | 5397 ft | 268 kts | 301° |
| 2026-05-03 21:39 | 26.28652 | -80.21489 | 6355 ft | 269 kts | 300° |
| 2026-05-03 21:39 | 26.29657 | -80.23260 | 7258 ft | 270 kts | 300° |
| 2026-05-03 21:39 | 26.30664 | -80.25036 | 8210 ft | 272 kts | 300° |
| 2026-05-03 21:39 | 26.31668 | -80.26809 | 9169 ft | 275 kts | 299° |
| 2026-05-03 21:40 | 26.32698 | -80.28627 | 10113 ft | 277 kts | 299° |
| 2026-05-03 21:40 | 26.33759 | -80.30503 | 10596 ft | 298 kts | 299° |
| 2026-05-03 21:40 | 26.34911 | -80.32545 | 10916 ft | 321 kts | 299° |
| 2026-05-03 21:40 | 26.36113 | -80.34672 | 11389 ft | 332 kts | 299° |
| 2026-05-03 21:41 | 26.37358 | -80.36869 | 12041 ft | 336 kts | 299° |
| 2026-05-03 21:41 | 26.38616 | -80.39085 | 12690 ft | 340 kts | 299° |
| 2026-05-03 21:41 | 26.39887 | -80.41324 | 12947 ft | 341 kts | 299° |
| 2026-05-03 21:41 | 26.41144 | -80.43535 | 13011 ft | 341 kts | 299° |
| 2026-05-03 21:42 | 26.42415 | -80.45778 | 13017 ft | 341 kts | 299° |
| 2026-05-03 21:42 | 26.43678 | -80.48014 | 13017 ft | 340 kts | 298° |
| 2026-05-03 21:42 | 26.44957 | -80.50288 | 13381 ft | 345 kts | 298° |
| 2026-05-03 21:42 | 26.46222 | -80.52535 | 14081 ft | 346 kts | 299° |
| 2026-05-03 21:43 | 26.47712 | -80.54664 | 14689 ft | 354 kts | 310° |
| 2026-05-03 21:43 | 26.49670 | -80.56402 | 15333 ft | 363 kts | 323° |
| 2026-05-03 21:43 | 26.51995 | -80.57605 | 15928 ft | 375 kts | 336° |
| 2026-05-03 21:43 | 26.54505 | -80.58414 | 16462 ft | 379 kts | 338° |
| 2026-05-03 21:44 | 26.57067 | -80.59218 | 17038 ft | 383 kts | 338° |
| 2026-05-03 21:44 | 26.59655 | -80.60034 | 17591 ft | 386 kts | 338° |
| 2026-05-03 21:44 | 26.62226 | -80.60847 | 18149 ft | 389 kts | 338° |
| 2026-05-03 21:44 | 26.64852 | -80.61681 | 18611 ft | 394 kts | 338° |
| 2026-05-03 21:45 | 26.67531 | -80.62532 | 18893 ft | 403 kts | 338° |
| 2026-05-03 21:45 | 26.70250 | -80.63394 | 19299 ft | 408 kts | 338° |
| 2026-05-03 21:45 | 26.72962 | -80.64254 | 19750 ft | 412 kts | 337° |
| 2026-05-03 21:45 | 26.75745 | -80.65141 | 20199 ft | 415 kts | 337° |
| 2026-05-03 21:46 | 26.78543 | -80.66038 | 20651 ft | 419 kts | 337° |
| 2026-05-03 21:46 | 26.81326 | -80.66930 | 21077 ft | 422 kts | 337° |
| 2026-05-03 21:46 | 26.84162 | -80.67835 | 21497 ft | 425 kts | 336° |
| 2026-05-03 21:46 | 26.87025 | -80.68749 | 21966 ft | 429 kts | 336° |
| 2026-05-03 21:47 | 26.89885 | -80.69659 | 22384 ft | 432 kts | 336° |
| 2026-05-03 21:47 | 26.92790 | -80.70609 | 22796 ft | 434 kts | 335° |
| 2026-05-03 21:47 | 26.95683 | -80.71641 | 23208 ft | 435 kts | 333° |
| 2026-05-03 21:47 | 26.98526 | -80.72722 | 23606 ft | 437 kts | 333° |
| 2026-05-03 21:48 | 27.01416 | -80.73854 | 23948 ft | 440 kts | 332° |
| 2026-05-03 21:48 | 27.04323 | -80.75000 | 24294 ft | 442 kts | 332° |
| 2026-05-03 21:48 | 27.07242 | -80.76141 | 24642 ft | 445 kts | 332° |
| 2026-05-03 21:48 | 27.10184 | -80.77275 | 24985 ft | 447 kts | 333° |
| 2026-05-03 21:49 | 27.13146 | -80.78400 | 25317 ft | 450 kts | 333° |
| 2026-05-03 21:49 | 27.16086 | -80.79508 | 25657 ft | 452 kts | 333° |
| 2026-05-03 21:49 | 27.19087 | -80.80639 | 26043 ft | 455 kts | 333° |
| 2026-05-03 21:49 | 27.22097 | -80.81774 | 26415 ft | 457 kts | 333° |
| 2026-05-03 21:50 | 27.25131 | -80.82921 | 26777 ft | 459 kts | 333° |
| 2026-05-03 21:50 | 27.28174 | -80.84064 | 27140 ft | 461 kts | 333° |
| 2026-05-03 21:50 | 27.31225 | -80.85227 | 27484 ft | 463 kts | 332° |
| 2026-05-03 21:50 | 27.34243 | -80.86415 | 27819 ft | 465 kts | 332° |
| 2026-05-03 21:51 | 27.37302 | -80.87655 | 28163 ft | 467 kts | 331° |
| 2026-05-03 21:51 | 27.40354 | -80.88916 | 28507 ft | 469 kts | 331° |
| 2026-05-03 21:51 | 27.43424 | -80.90193 | 28877 ft | 470 kts | 331° |
| 2026-05-03 21:51 | 27.46492 | -80.91471 | 29380 ft | 469 kts | 331° |
| 2026-05-03 21:52 | 27.49562 | -80.92745 | 29893 ft | 468 kts | 331° |
| 2026-05-03 21:52 | 27.52586 | -80.93994 | 30350 ft | 467 kts | 331° |
| 2026-05-03 21:52 | 27.55643 | -80.95253 | 30788 ft | 466 kts | 330° |
| 2026-05-03 21:52 | 27.58690 | -80.96505 | 31242 ft | 465 kts | 330° |
| 2026-05-03 21:53 | 27.61735 | -80.97758 | 31711 ft | 463 kts | 330° |
| 2026-05-03 21:53 | 27.64722 | -80.98989 | 32177 ft | 461 kts | 329° |
| 2026-05-03 21:53 | 27.67747 | -81.00237 | 32653 ft | 459 kts | 329° |
| 2026-05-03 21:53 | 27.70753 | -81.01478 | 33141 ft | 457 kts | 328° |
| 2026-05-03 21:54 | 27.73732 | -81.02711 | 33623 ft | 455 kts | 328° |
| 2026-05-03 21:54 | 27.76710 | -81.03943 | 34101 ft | 453 kts | 327° |
| 2026-05-03 21:54 | 27.79627 | -81.05151 | 34578 ft | 451 kts | 327° |
| 2026-05-03 21:54 | 27.82579 | -81.06374 | 34980 ft | 449 kts | 327° |
| 2026-05-03 21:55 | 27.85516 | -81.07594 | 35341 ft | 448 kts | 327° |
| 2026-05-03 21:55 | 27.88450 | -81.08814 | 35684 ft | 448 kts | 327° |
| 2026-05-03 21:55 | 27.91345 | -81.10019 | 36012 ft | 447 kts | 327° |
| 2026-05-03 21:55 | 27.94284 | -81.11242 | 36344 ft | 447 kts | 327° |
| 2026-05-03 21:56 | 27.97202 | -81.12459 | 36670 ft | 446 kts | 326° |
| 2026-05-03 21:56 | 28.00087 | -81.13660 | 36976 ft | 447 kts | 327° |
| 2026-05-03 21:56 | 28.03013 | -81.14878 | 37081 ft | 448 kts | 326° |
| 2026-05-03 21:56 | 28.05916 | -81.16164 | 37085 ft | 446 kts | 324° |
| 2026-05-03 21:57 | 28.11568 | -81.19033 | 37080 ft | 444 kts | 321° |
| 2026-05-03 21:57 | 28.17137 | -81.22040 | 37094 ft | 446 kts | 321° |
| 2026-05-03 21:58 | 28.22795 | -81.25032 | 37093 ft | 450 kts | 322° |
| 2026-05-03 21:58 | 28.28491 | -81.27969 | 37093 ft | 452 kts | 322° |
| 2026-05-03 21:59 | 28.34254 | -81.30923 | 37097 ft | 453 kts | 322° |
| 2026-05-03 21:59 | 28.39979 | -81.33846 | 37121 ft | 454 kts | 322° |
| 2026-05-03 22:00 | 28.45747 | -81.36781 | 37088 ft | 453 kts | 322° |
| 2026-05-03 22:00 | 28.51500 | -81.39720 | 37095 ft | 453 kts | 322° |
| 2026-05-03 22:01 | 28.57264 | -81.42677 | 37100 ft | 454 kts | 322° |
| 2026-05-03 22:01 | 28.63019 | -81.45636 | 37105 ft | 454 kts | 322° |
| 2026-05-03 22:02 | 28.68762 | -81.48584 | 37109 ft | 454 kts | 322° |
| 2026-05-03 22:02 | 28.74492 | -81.51527 | 37094 ft | 453 kts | 322° |
| 2026-05-03 22:03 | 28.80243 | -81.54486 | 37083 ft | 453 kts | 322° |
| 2026-05-03 22:03 | 28.83110 | -81.55965 | 36563 ft | 452 kts | 322° |
| 2026-05-03 22:03 | 28.85947 | -81.57434 | 35899 ft | 453 kts | 322° |
| 2026-05-03 22:04 | 28.88821 | -81.58922 | 35339 ft | 452 kts | 322° |
| 2026-05-03 22:04 | 28.91760 | -81.60281 | 35125 ft | 464 kts | 329° |
| 2026-05-03 22:04 | 28.94986 | -81.61113 | 35093 ft | 484 kts | 340° |
| 2026-05-03 22:04 | 28.98384 | -81.61462 | 35107 ft | 492 kts | 343° |
| 2026-05-03 22:05 | 29.05168 | -81.62063 | 35111 ft | 491 kts | 343° |
| 2026-05-03 22:05 | 29.12010 | -81.62674 | 35117 ft | 490 kts | 343° |
| 2026-05-03 22:06 | 29.18785 | -81.63305 | 35117 ft | 490 kts | 343° |
| 2026-05-03 22:06 | 29.25614 | -81.63941 | 35101 ft | 492 kts | 343° |
| 2026-05-03 22:07 | 29.32435 | -81.64565 | 35139 ft | 494 kts | 343° |
| 2026-05-03 22:07 | 29.39300 | -81.65192 | 35140 ft | 494 kts | 343° |
| 2026-05-03 22:08 | 29.46129 | -81.65817 | 35134 ft | 495 kts | 343° |
| 2026-05-03 22:08 | 29.53012 | -81.66455 | 35127 ft | 495 kts | 343° |
| 2026-05-03 22:09 | 29.59909 | -81.67095 | 35155 ft | 497 kts | 344° |
| 2026-05-03 22:10 | 29.70263 | -81.68039 | 35132 ft | 499 kts | 344° |
| 2026-05-03 22:10 | 29.77202 | -81.68676 | 35130 ft | 500 kts | 344° |
| 2026-05-03 22:11 | 29.84089 | -81.69323 | 35134 ft | 500 kts | 343° |
| 2026-05-03 22:11 | 29.91042 | -81.69972 | 35147 ft | 499 kts | 344° |
| 2026-05-03 22:12 | 29.97927 | -81.70610 | 35142 ft | 499 kts | 344° |
| 2026-05-03 22:12 | 30.04862 | -81.71266 | 35143 ft | 498 kts | 344° |
| 2026-05-03 22:13 | 30.11743 | -81.71907 | 35140 ft | 499 kts | 344° |
| 2026-05-03 22:13 | 30.18672 | -81.72546 | 35135 ft | 498 kts | 345° |
| 2026-05-03 22:14 | 30.24433 | -81.73079 | 35140 ft | 498 kts | 345° |
| 2026-05-03 22:14 | 30.31358 | -81.73730 | 35140 ft | 498 kts | 345° |
| 2026-05-03 22:15 | 30.38245 | -81.74377 | 35131 ft | 499 kts | 345° |
| 2026-05-03 22:15 | 30.45169 | -81.75032 | 35128 ft | 499 kts | 345° |
| 2026-05-03 22:16 | 30.52097 | -81.75686 | 35130 ft | 499 kts | 345° |
| 2026-05-03 22:16 | 30.58987 | -81.76347 | 35134 ft | 495 kts | 341° |
| 2026-05-03 22:16 | 30.62314 | -81.77132 | 35135 ft | 477 kts | 330° |
| 2026-05-03 22:17 | 30.65308 | -81.78597 | 35139 ft | 462 kts | 322° |
| 2026-05-03 22:17 | 30.71088 | -81.81896 | 35182 ft | 462 kts | 322° |
| 2026-05-03 22:18 | 30.76813 | -81.85199 | 35184 ft | 462 kts | 322° |
| 2026-05-03 22:18 | 30.82587 | -81.88542 | 35155 ft | 462 kts | 322° |
| 2026-05-03 22:19 | 30.88323 | -81.91854 | 35151 ft | 462 kts | 322° |
| 2026-05-03 22:19 | 30.94089 | -81.95191 | 35140 ft | 462 kts | 322° |
| 2026-05-03 22:20 | 30.99853 | -81.98534 | 35195 ft | 462 kts | 322° |
| 2026-05-03 22:20 | 31.05624 | -82.01889 | 35155 ft | 463 kts | 322° |
| 2026-05-03 22:21 | 31.11360 | -82.05232 | 35136 ft | 463 kts | 322° |
| 2026-05-03 22:21 | 31.17152 | -82.08601 | 35135 ft | 463 kts | 322° |
| 2026-05-03 22:22 | 31.22885 | -82.11937 | 35135 ft | 463 kts | 322° |
| 2026-05-03 22:22 | 31.28659 | -82.15300 | 35178 ft | 463 kts | 322° |
| 2026-05-03 22:23 | 31.34422 | -82.18672 | 35126 ft | 462 kts | 322° |
| 2026-05-03 22:23 | 31.40137 | -82.22031 | 35126 ft | 462 kts | 322° |
| 2026-05-03 22:24 | 31.45898 | -82.25408 | 35122 ft | 462 kts | 322° |
| 2026-05-03 22:24 | 31.51639 | -82.28770 | 35121 ft | 462 kts | 322° |
| 2026-05-03 22:25 | 31.57413 | -82.32160 | 35156 ft | 462 kts | 322° |
| 2026-05-03 22:25 | 31.63126 | -82.35531 | 35127 ft | 461 kts | 322° |
| 2026-05-03 22:26 | 31.68868 | -82.38919 | 35127 ft | 461 kts | 322° |
| 2026-05-03 22:26 | 31.74566 | -82.42293 | 35123 ft | 461 kts | 322° |
| 2026-05-03 22:27 | 31.80299 | -82.45684 | 35120 ft | 460 kts | 322° |
| 2026-05-03 22:27 | 31.86001 | -82.49059 | 35167 ft | 460 kts | 322° |
| 2026-05-03 22:28 | 31.91726 | -82.52451 | 35147 ft | 460 kts | 322° |
| 2026-05-03 22:28 | 31.97248 | -82.56158 | 35135 ft | 443 kts | 311° |
| 2026-05-03 22:29 | 32.01860 | -82.60811 | 35130 ft | 438 kts | 308° |
| 2026-05-03 22:29 | 32.06479 | -82.65515 | 35125 ft | 438 kts | 308° |
| 2026-05-03 22:30 | 32.11065 | -82.70195 | 35121 ft | 438 kts | 308° |
| 2026-05-03 22:30 | 32.15688 | -82.74931 | 35150 ft | 438 kts | 308° |
| 2026-05-03 22:31 | 32.20267 | -82.79620 | 35156 ft | 438 kts | 309° |
| 2026-05-03 22:31 | 32.24886 | -82.84340 | 35140 ft | 438 kts | 309° |
| 2026-05-03 22:32 | 32.29473 | -82.89044 | 35105 ft | 438 kts | 308° |
| 2026-05-03 22:32 | 32.31765 | -82.91400 | 34779 ft | 433 kts | 309° |
| 2026-05-03 22:32 | 32.34025 | -82.93718 | 34482 ft | 427 kts | 309° |
| 2026-05-03 22:32 | 32.36271 | -82.96030 | 34234 ft | 426 kts | 309° |
| 2026-05-03 22:33 | 32.38478 | -82.98305 | 33985 ft | 425 kts | 309° |
| 2026-05-03 22:33 | 32.40719 | -83.00619 | 33716 ft | 426 kts | 309° |
| 2026-05-03 22:33 | 32.42958 | -83.02928 | 33501 ft | 426 kts | 309° |
| 2026-05-03 22:33 | 32.45169 | -83.05209 | 33239 ft | 426 kts | 309° |
| 2026-05-03 22:34 | 32.47407 | -83.07518 | 32977 ft | 427 kts | 309° |
| 2026-05-03 22:34 | 32.49651 | -83.09832 | 32712 ft | 427 kts | 309° |
| 2026-05-03 22:34 | 32.51904 | -83.12151 | 32458 ft | 428 kts | 310° |
| 2026-05-03 22:34 | 32.54163 | -83.14479 | 32171 ft | 428 kts | 310° |
| 2026-05-03 22:35 | 32.56395 | -83.16784 | 31175 ft | 434 kts | 310° |
| 2026-05-03 22:35 | 32.58697 | -83.19166 | 30147 ft | 439 kts | 311° |
| 2026-05-03 22:35 | 32.61021 | -83.21576 | 28884 ft | 445 kts | 312° |
| 2026-05-03 22:35 | 32.63361 | -83.24007 | 27725 ft | 449 kts | 312° |
| 2026-05-03 22:36 | 32.65698 | -83.26437 | 26538 ft | 452 kts | 313° |
| 2026-05-03 22:36 | 32.68092 | -83.28923 | 25360 ft | 456 kts | 313° |
| 2026-05-03 22:36 | 32.70461 | -83.31381 | 24233 ft | 459 kts | 314° |
| 2026-05-03 22:36 | 32.72871 | -83.33884 | 23026 ft | 460 kts | 315° |
| 2026-05-03 22:37 | 32.75286 | -83.36393 | 22039 ft | 456 kts | 315° |
| 2026-05-03 22:37 | 32.77652 | -83.38850 | 20946 ft | 442 kts | 315° |
| 2026-05-03 22:37 | 32.79919 | -83.41205 | 19680 ft | 430 kts | 315° |
| 2026-05-03 22:37 | 32.82151 | -83.43532 | 18799 ft | 424 kts | 315° |
| 2026-05-03 22:38 | 32.84355 | -83.45838 | 18204 ft | 415 kts | 315° |
| 2026-05-03 22:38 | 32.86480 | -83.48058 | 18058 ft | 391 kts | 315° |
| 2026-05-03 22:38 | 32.88451 | -83.50109 | 17759 ft | 364 kts | 315° |
| 2026-05-03 22:38 | 32.90308 | -83.52049 | 17349 ft | 354 kts | 315° |
| 2026-05-03 22:39 | 32.92141 | -83.53972 | 17094 ft | 348 kts | 315° |
| 2026-05-03 22:39 | 32.93953 | -83.55878 | 16838 ft | 346 kts | 315° |
| 2026-05-03 22:39 | 32.95754 | -83.57778 | 16583 ft | 345 kts | 315° |
| 2026-05-03 22:39 | 32.97528 | -83.59647 | 16338 ft | 343 kts | 315° |
| 2026-05-03 22:40 | 32.99332 | -83.61539 | 15887 ft | 343 kts | 315° |
| 2026-05-03 22:40 | 33.01115 | -83.63401 | 15353 ft | 343 kts | 316° |
| 2026-05-03 22:40 | 33.02902 | -83.65268 | 14749 ft | 343 kts | 316° |
| 2026-05-03 22:40 | 33.04693 | -83.67139 | 14324 ft | 338 kts | 316° |
| 2026-05-03 22:41 | 33.06439 | -83.68967 | 13537 ft | 331 kts | 316° |
| 2026-05-03 22:41 | 33.08136 | -83.70751 | 12673 ft | 326 kts | 316° |
| 2026-05-03 22:41 | 33.09785 | -83.72489 | 12407 ft | 305 kts | 316° |
| 2026-05-03 22:41 | 33.11340 | -83.74127 | 12094 ft | 289 kts | 316° |
| 2026-05-03 22:42 | 33.12844 | -83.75714 | 11849 ft | 286 kts | 316° |
| 2026-05-03 22:42 | 33.14314 | -83.77263 | 11610 ft | 284 kts | 317° |
| 2026-05-03 22:42 | 33.15793 | -83.78825 | 11361 ft | 283 kts | 317° |
| 2026-05-03 22:42 | 33.17267 | -83.80380 | 11117 ft | 282 kts | 317° |
| 2026-05-03 22:43 | 33.18732 | -83.81927 | 10866 ft | 281 kts | 317° |
| 2026-05-03 22:43 | 33.20170 | -83.83510 | 10594 ft | 282 kts | 315° |
| 2026-05-03 22:43 | 33.21574 | -83.85165 | 10218 ft | 282 kts | 314° |
| 2026-05-03 22:43 | 33.22945 | -83.86818 | 9855 ft | 282 kts | 314° |
| 2026-05-03 22:44 | 33.24321 | -83.88483 | 9475 ft | 281 kts | 314° |
| 2026-05-03 22:44 | 33.25750 | -83.90057 | 9221 ft | 276 kts | 323° |
| 2026-05-03 22:44 | 33.27282 | -83.91319 | 9155 ft | 265 kts | 324° |
| 2026-05-03 22:44 | 33.28762 | -83.92557 | 9089 ft | 254 kts | 323° |
| 2026-05-03 22:45 | 33.30223 | -83.93784 | 8964 ft | 265 kts | 324° |
| 2026-05-03 22:45 | 33.31759 | -83.95074 | 8835 ft | 271 kts | 324° |
| 2026-05-03 22:45 | 33.33307 | -83.96372 | 8717 ft | 272 kts | 324° |
| 2026-05-03 22:45 | 33.34859 | -83.97669 | 8562 ft | 271 kts | 324° |
| 2026-05-03 22:46 | 33.36377 | -83.98938 | 8284 ft | 269 kts | 324° |
| 2026-05-03 22:46 | 33.37910 | -84.00220 | 7943 ft | 268 kts | 324° |
| 2026-05-03 22:46 | 33.39443 | -84.01504 | 7622 ft | 267 kts | 324° |
| 2026-05-03 22:46 | 33.40965 | -84.02777 | 7294 ft | 266 kts | 324° |
| 2026-05-03 22:47 | 33.42481 | -84.04044 | 6985 ft | 265 kts | 325° |
| 2026-05-03 22:47 | 33.43978 | -84.05296 | 6499 ft | 261 kts | 324° |
| 2026-05-03 22:47 | 33.45461 | -84.06542 | 5887 ft | 259 kts | 324° |
| 2026-05-03 22:47 | 33.46926 | -84.07770 | 5326 ft | 259 kts | 324° |
| 2026-05-03 22:48 | 33.48409 | -84.09012 | 5058 ft | 257 kts | 324° |
| 2026-05-03 22:48 | 33.49845 | -84.10212 | 4928 ft | 243 kts | 324° |
| 2026-05-03 22:48 | 33.51184 | -84.11330 | 4793 ft | 226 kts | 324° |
| 2026-05-03 22:48 | 33.52442 | -84.12383 | 4636 ft | 219 kts | 323° |
| 2026-05-03 22:49 | 33.53677 | -84.13423 | 4392 ft | 216 kts | 323° |
| 2026-05-03 22:49 | 33.54907 | -84.14460 | 4104 ft | 216 kts | 323° |
| 2026-05-03 22:49 | 33.56137 | -84.15497 | 3800 ft | 215 kts | 323° |
| 2026-05-03 22:49 | 33.57362 | -84.16526 | 3557 ft | 213 kts | 323° |
| 2026-05-03 22:50 | 33.58574 | -84.17557 | 3279 ft | 212 kts | 319° |
| 2026-05-03 22:50 | 33.59457 | -84.18907 | 3073 ft | 207 kts | 297° |
| 2026-05-03 22:50 | 33.60101 | -84.20460 | 3026 ft | 207 kts | 295° |
| 2026-05-03 22:50 | 33.60693 | -84.21979 | 3026 ft | 193 kts | 294° |
| 2026-05-03 22:51 | 33.61244 | -84.23405 | 3027 ft | 185 kts | 294° |
| 2026-05-03 22:51 | 33.61782 | -84.24796 | 3051 ft | 182 kts | 294° |
| 2026-05-03 22:51 | 33.62306 | -84.26153 | 3038 ft | 180 kts | 294° |
| 2026-05-03 22:51 | 33.62832 | -84.27510 | 3034 ft | 178 kts | 294° |
| 2026-05-03 22:52 | 33.63171 | -84.28837 | 3031 ft | 154 kts | 274° |
| 2026-05-03 22:52 | 33.63177 | -84.30072 | 2907 ft | 141 kts | 271° |
| 2026-05-03 22:52 | 33.63177 | -84.31218 | 2757 ft | 135 kts | 272° |
| 2026-05-03 22:52 | 33.63177 | -84.32341 | 2590 ft | 133 kts | 272° |
| 2026-05-03 22:53 | 33.63178 | -84.33441 | 2415 ft | 133 kts | 272° |
| 2026-05-03 22:53 | 33.63179 | -84.34550 | 2239 ft | 133 kts | 272° |
| 2026-05-03 22:53 | 33.63180 | -84.35677 | 2072 ft | 135 kts | 271° |
| 2026-05-03 22:53 | 33.63180 | -84.36804 | 1889 ft | 134 kts | 271° |
| 2026-05-03 22:54 | 33.63181 | -84.37916 | 1683 ft | 133 kts | 271° |
| 2026-05-03 22:54 | 33.63181 | -84.39013 | 1506 ft | 132 kts | 272° |
| 2026-05-03 22:54 | 33.63182 | -84.40117 | 1329 ft | 133 kts | 272° |
| 2026-05-03 22:54 | 33.63181 | -84.41230 | 1148 ft | 132 kts | 271° |
| 2026-05-03 22:55 | 33.63182 | -84.42326 | 1016 ft | 125 kts | 271° |
| 2026-05-03 22:55 | 33.63187 | -84.43218 | 1009 ft | 83 kts | 270° |
| 2026-05-03 22:55 | 33.63215 | -84.43581 | 1008 ft | 33 kts | 289° |
| 2026-05-03 22:55 | 33.63297 | -84.43725 | 1006 ft | 18 kts | 350° |
| 2026-05-03 22:56 | 33.63360 | -84.43652 | 1006 ft | 10 kts | 75° |
| 2026-05-03 22:56 | 33.63368 | -84.43632 | 1006 ft | 0 kts | 55° |
| 2026-05-03 22:57 | 33.63405 | -84.43608 | 1006 ft | 16 kts | 12° |
| 2026-05-03 22:57 | 33.63537 | -84.43605 | 1006 ft | 16 kts | 2° |
| 2026-05-03 22:57 | 33.63581 | -84.43516 | 1006 ft | 16 kts | 86° |
| 2026-05-03 22:57 | 33.63644 | -84.43426 | 1006 ft | 17 kts | 1° |
| 2026-05-03 22:58 | 33.63772 | -84.43427 | 1006 ft | 20 kts | 0° |
| 2026-05-03 22:58 | 33.63869 | -84.43427 | 1006 ft | 10 kts | 359° |
| 2026-05-03 22:58 | 33.63905 | -84.43399 | 1006 ft | 3 kts | 64° |
| 2026-05-03 22:58 | 33.63906 | -84.43386 | 1006 ft | 3 kts | 89° |
| 2026-05-03 22:59 | 33.63905 | -84.43341 | 1006 ft | 1 kts | 90° |
| 2026-05-03 22:59 | 33.63905 | -84.43328 | 1006 ft | 0 kts | 90° |